createdAt,value
2023-04-11T00:01:05.060Z,85.76
2023-04-11T00:04:08.159Z,85.78
2023-04-11T00:07:10.849Z,85.67
2023-04-11T00:10:12.960Z,86.24
2023-04-11T00:13:15.060Z,86.04
2023-04-11T00:16:17.153Z,86.31
2023-04-11T00:19:23.428Z,86.35
2023-04-11T00:22:27.846Z,86.65
2023-04-11T00:25:30.336Z,86.32
2023-04-11T00:28:32.358Z,86.19
2023-04-11T00:31:35.002Z,86.75
2023-04-11T00:34:37.167Z,87.01
2023-04-11T00:37:39.486Z,87.21
2023-04-11T00:40:41.594Z,86.74
2023-04-11T00:43:43.592Z,86.49
2023-04-11T00:46:46.483Z,86.72
2023-04-11T00:49:48.546Z,86.78
2023-04-11T00:52:53.532Z,87.08
2023-04-11T00:55:55.807Z,86.45
2023-04-11T00:58:57.835Z,86.63
2023-04-11T01:02:00.550Z,87.29
2023-04-11T01:05:02.689Z,87.31
2023-04-11T01:08:05.090Z,86.69
2023-04-11T01:11:09.346Z,86.75
2023-04-11T01:14:11.362Z,87.18
2023-04-11T01:17:14.683Z,87.78
2023-04-11T01:20:17.443Z,87.00
2023-04-11T01:23:23.924Z,87.18
2023-04-11T01:26:25.970Z,87.09
2023-04-11T01:29:28.441Z,87.73
2023-04-11T01:32:30.587Z,88.39
2023-04-11T01:35:32.956Z,87.38
2023-04-11T01:38:35.125Z,86.97
2023-04-11T01:41:37.790Z,87.51
2023-04-11T01:44:40.521Z,87.41
2023-04-11T01:47:42.658Z,88.05
2023-04-11T01:50:44.643Z,87.81
2023-04-11T01:53:49.769Z,88.18
2023-04-11T01:56:52.513Z,88.34
2023-04-11T01:59:54.480Z,87.97
2023-04-11T02:02:56.539Z,88.46
2023-04-11T02:05:58.659Z,88.08
2023-04-11T02:09:00.632Z,87.78
2023-04-11T02:12:02.646Z,88.32
2023-04-11T02:15:06.627Z,88.41
2023-04-11T02:18:09.647Z,88.23
2023-04-11T02:21:12.392Z,88.13
2023-04-11T02:24:14.363Z,88.13
2023-04-11T02:27:16.494Z,88.38
2023-04-11T02:30:18.516Z,88.39
2023-04-11T02:33:20.707Z,88.18
2023-04-11T02:36:23.135Z,88.71
2023-04-11T02:39:25.217Z,89.20
2023-04-11T02:42:27.308Z,88.60
2023-04-11T02:45:29.341Z,88.74
2023-04-11T02:48:31.256Z,88.88
2023-04-11T02:51:33.819Z,88.99
2023-04-11T02:54:36.030Z,88.94
2023-04-11T02:57:37.989Z,89.13
2023-04-11T03:00:43.510Z,89.02
2023-04-11T03:03:45.989Z,88.69
2023-04-11T03:06:48.900Z,88.84
2023-04-11T03:09:51.013Z,88.72
2023-04-11T03:12:52.959Z,88.81
2023-04-11T03:15:55.049Z,88.50
2023-04-11T03:19:00.749Z,88.90
2023-04-11T03:22:02.800Z,88.88
2023-04-11T03:25:06.610Z,88.91
2023-04-11T03:28:08.897Z,88.94
2023-04-11T03:31:12.042Z,88.80
2023-04-11T03:34:14.941Z,88.85
2023-04-11T03:37:17.553Z,88.78
2023-04-11T03:40:19.728Z,89.02
2023-04-11T03:43:27.023Z,89.14
2023-04-11T03:46:29.802Z,88.92
2023-04-11T03:49:31.908Z,88.65
2023-04-11T03:52:35.755Z,88.86
2023-04-11T03:55:41.822Z,88.63
2023-04-11T03:58:45.793Z,89.00
2023-04-11T04:01:48.705Z,88.97
2023-04-11T04:04:55.898Z,88.80
2023-04-11T04:08:02.312Z,88.75
2023-04-11T04:11:16.538Z,89.08
2023-04-11T04:14:20.113Z,88.97
2023-04-11T04:17:24.652Z,88.91
2023-04-11T04:20:27.053Z,88.94
2023-04-11T04:23:32.917Z,88.81
2023-04-11T04:26:54.206Z,88.87
2023-04-11T04:30:19.392Z,88.36
2023-04-11T04:33:37.642Z,88.38
2023-04-11T04:36:48.066Z,88.79
2023-04-11T04:40:02.409Z,88.69
2023-04-11T04:43:09.324Z,88.67
2023-04-11T04:46:23.295Z,88.64
2023-04-11T04:49:26.919Z,88.70
2023-04-11T04:52:29.668Z,88.71
2023-04-11T04:55:33.519Z,88.64
2023-04-11T04:58:35.870Z,88.70
2023-04-11T05:01:41.290Z,89.00
2023-04-11T05:04:50.397Z,88.63
2023-04-11T05:07:53.090Z,88.70
2023-04-11T05:10:55.228Z,88.89
2023-04-11T05:13:57.831Z,88.74
2023-04-11T05:17:00.292Z,88.73
2023-04-11T05:20:06.620Z,88.69
2023-04-11T05:23:08.787Z,88.73
2023-04-11T05:26:11.837Z,88.99
2023-04-11T05:29:15.973Z,88.84
2023-04-11T05:32:18.532Z,88.61
2023-04-11T05:35:21.604Z,88.55
2023-04-11T05:38:28.906Z,88.69
2023-04-11T05:41:30.916Z,88.58
2023-04-11T05:44:32.893Z,88.63
2023-04-11T05:47:35.022Z,88.79
2023-04-11T05:50:37.148Z,88.69
2023-04-11T05:53:39.216Z,88.71
2023-04-11T05:56:42.749Z,89.16
2023-04-11T05:59:44.781Z,88.77
2023-04-11T06:02:49.362Z,88.48
2023-04-11T06:05:51.550Z,88.53
2023-04-11T06:08:54.343Z,88.72
2023-04-11T06:11:57.705Z,88.89
2023-04-11T06:15:00.508Z,88.68
2023-04-11T06:18:02.572Z,88.31
2023-04-11T06:21:04.828Z,88.49
2023-04-11T06:24:11.281Z,88.66
2023-04-11T06:27:13.588Z,88.40
2023-04-11T06:30:15.724Z,87.59
2023-04-11T06:33:17.820Z,87.48
2023-04-11T06:36:19.926Z,87.16
2023-04-11T06:39:22.219Z,86.98
2023-04-11T06:42:24.354Z,86.19
2023-04-11T06:45:27.819Z,86.73
2023-04-11T06:48:29.843Z,86.26
2023-04-11T06:51:32.002Z,86.03
2023-04-11T06:54:34.148Z,85.19
2023-04-11T06:57:36.235Z,84.65
2023-04-11T07:00:38.369Z,83.35
2023-04-11T07:03:40.827Z,81.87
2023-04-11T07:06:44.383Z,81.21
2023-04-11T07:09:47.785Z,80.48
2023-04-11T07:12:49.854Z,78.62
2023-04-11T07:15:51.969Z,78.07
2023-04-11T07:18:54.918Z,76.42
2023-04-11T07:21:56.970Z,76.29
2023-04-11T07:24:58.998Z,76.01
2023-04-11T07:28:01.231Z,75.46
2023-04-11T07:31:04.396Z,76.55
2023-04-11T07:34:07.798Z,76.17
2023-04-11T07:37:09.823Z,75.84
2023-04-11T07:40:14.515Z,75.85
2023-04-11T07:43:16.517Z,75.04
2023-04-11T07:46:18.819Z,73.78
2023-04-11T07:49:20.963Z,72.57
2023-04-11T07:52:23.025Z,73.55
2023-04-11T07:55:25.127Z,75.00
2023-04-11T07:58:27.033Z,74.32
2023-04-11T08:01:29.122Z,73.57
2023-04-11T08:04:33.758Z,72.85
2023-04-11T08:07:36.150Z,72.73
2023-04-11T08:10:38.146Z,70.88
2023-04-11T08:13:40.317Z,71.39
2023-04-11T08:16:42.520Z,71.01
2023-04-11T08:19:44.547Z,70.56
2023-04-11T08:22:47.094Z,69.63
2023-04-11T08:25:49.172Z,68.58
2023-04-11T08:28:51.201Z,62.32
2023-04-11T08:31:53.438Z,60.10
2023-04-11T08:34:55.611Z,58.22
2023-04-11T08:37:57.616Z,59.42
2023-04-11T08:40:59.730Z,55.23
2023-04-11T08:44:01.797Z,56.11
2023-04-11T08:47:06.017Z,54.73
2023-04-11T08:50:08.808Z,56.93
2023-04-11T08:53:11.396Z,57.41
2023-04-11T08:56:17.288Z,56.18
2023-04-11T08:59:19.510Z,56.63
2023-04-11T09:02:22.329Z,58.15
2023-04-11T09:05:29.234Z,59.98
2023-04-11T09:08:39.565Z,63.05
2023-04-11T09:11:55.199Z,67.64
2023-04-11T09:14:57.562Z,68.02
2023-04-11T09:18:01.103Z,68.99
2023-04-11T09:21:06.682Z,69.04
2023-04-11T09:24:18.180Z,71.08
2023-04-11T09:27:24.580Z,74.96
2023-04-11T09:30:27.041Z,75.69
2023-04-11T09:33:31.682Z,75.11
2023-04-11T09:36:33.930Z,75.10
2023-04-11T09:39:36.013Z,73.26
2023-04-11T09:42:38.455Z,75.41
2023-04-11T09:45:51.608Z,76.73
2023-04-11T09:48:56.880Z,76.86
2023-04-11T09:52:01.136Z,75.96
2023-04-11T09:55:04.976Z,76.91
2023-04-11T09:58:11.389Z,78.67
2023-04-11T10:01:14.555Z,78.39
2023-04-11T10:04:16.648Z,78.63
2023-04-11T10:07:19.928Z,80.45
2023-04-11T10:10:23.813Z,79.97
2023-04-11T10:13:42.248Z,80.41
2023-04-11T10:17:15.696Z,80.57
2023-04-11T10:20:50.011Z,80.32
2023-04-11T10:24:14.773Z,81.31
2023-04-11T10:27:50.955Z,80.55
2023-04-11T10:31:05.145Z,80.41
2023-04-11T10:34:14.676Z,80.69
2023-04-11T10:37:18.694Z,80.81
2023-04-11T10:40:20.960Z,80.51
2023-04-11T10:43:25.428Z,80.87
2023-04-11T10:46:27.592Z,81.25
2023-04-11T10:49:34.588Z,81.66
2023-04-11T10:52:41.985Z,82.28
2023-04-11T10:55:46.800Z,82.37
2023-04-11T10:58:49.834Z,82.53
2023-04-11T11:01:58.876Z,82.87
2023-04-11T11:05:02.332Z,82.90
2023-04-11T11:08:04.658Z,82.82
2023-04-11T11:11:09.401Z,83.18
2023-04-11T11:14:11.424Z,83.02
2023-04-11T11:17:15.637Z,83.54
2023-04-11T11:20:20.268Z,83.45
2023-04-11T11:23:22.512Z,83.32
2023-04-11T11:26:44.679Z,83.34
2023-04-11T11:29:47.057Z,83.57
2023-04-11T11:32:49.196Z,83.47
2023-04-11T11:36:00.792Z,83.42
2023-04-11T11:39:05.608Z,84.14
2023-04-11T11:42:07.849Z,83.66
2023-04-11T11:45:20.249Z,83.90
2023-04-11T11:48:24.781Z,84.03
2023-04-11T11:51:27.025Z,84.15
2023-04-11T11:54:29.297Z,84.07
2023-04-11T11:57:32.266Z,79.97
2023-04-11T12:00:39.539Z,75.25
2023-04-11T12:03:41.821Z,77.15
2023-04-11T12:06:46.011Z,81.05
2023-04-11T12:09:49.346Z,76.23
2023-04-11T12:12:53.160Z,77.27
2023-04-11T12:15:58.255Z,77.54
2023-04-11T12:19:02.972Z,74.17
2023-04-11T12:22:04.941Z,72.04
2023-04-11T12:25:16.116Z,73.27
2023-04-11T12:28:18.317Z,76.03
2023-04-11T12:31:21.450Z,72.75
2023-04-11T12:34:23.462Z,74.11
2023-04-11T12:37:25.882Z,75.69
2023-04-11T12:40:29.932Z,72.01
2023-04-11T12:43:32.111Z,73.76
2023-04-11T12:46:34.417Z,78.96
2023-04-11T12:49:37.110Z,72.99
2023-04-11T12:52:39.323Z,73.72
2023-04-11T12:55:41.513Z,75.27
2023-04-11T12:58:45.108Z,72.94
2023-04-11T13:01:47.498Z,71.13
2023-04-11T13:04:54.741Z,72.04
2023-04-11T13:07:57.005Z,72.39
2023-04-11T13:10:58.995Z,71.47
2023-04-11T13:14:01.047Z,70.94
2023-04-11T13:17:03.449Z,72.37
2023-04-11T13:20:11.131Z,73.74
2023-04-11T13:23:14.858Z,75.13
2023-04-11T13:26:19.775Z,77.49
2023-04-11T13:29:21.856Z,78.62
2023-04-11T13:32:24.100Z,81.15
2023-04-11T13:35:26.881Z,78.80
2023-04-11T13:38:29.596Z,76.63
2023-04-11T13:41:32.761Z,79.52
2023-04-11T13:44:34.811Z,77.64
2023-04-11T13:47:38.719Z,78.87
2023-04-11T13:50:41.216Z,77.64
2023-04-11T13:53:43.264Z,79.30
2023-04-11T13:56:45.227Z,76.93
2023-04-11T13:59:47.298Z,77.50
2023-04-11T14:02:51.333Z,77.83
2023-04-11T14:05:54.558Z,78.57
2023-04-11T14:08:56.838Z,75.51
2023-04-11T14:11:58.813Z,75.23
2023-04-11T14:15:00.851Z,77.98
2023-04-11T14:18:03.431Z,78.06
2023-04-11T14:21:05.935Z,74.21
2023-04-11T14:24:08.498Z,74.30
2023-04-11T14:27:10.518Z,73.18
2023-04-11T14:30:13.232Z,74.66
2023-04-11T14:33:15.868Z,73.87
2023-04-11T14:36:18.027Z,69.45
2023-04-11T14:39:20.232Z,67.69
2023-04-11T14:42:22.229Z,66.91
2023-04-11T14:45:24.296Z,68.84
2023-04-11T14:48:27.572Z,64.61
2023-04-11T14:51:29.964Z,62.84
2023-04-11T14:54:32.112Z,63.24
2023-04-11T14:57:54.766Z,60.55
2023-04-11T15:00:56.963Z,62.54
2023-04-11T15:03:59.118Z,64.97
2023-04-11T15:07:01.777Z,60.77
2023-04-11T15:10:03.925Z,64.76
2023-04-11T15:13:05.931Z,62.49
2023-04-11T15:16:08.511Z,62.58
2023-04-11T15:19:10.701Z,60.99
2023-04-11T15:22:12.684Z,62.17
2023-04-11T15:25:16.592Z,61.75
2023-04-11T15:28:18.719Z,58.30
2023-04-11T15:31:26.238Z,58.15
2023-04-11T15:34:28.782Z,59.98
2023-04-11T15:37:31.304Z,58.61
2023-04-11T15:40:33.462Z,59.38
2023-04-11T15:43:35.866Z,57.50
2023-04-11T15:46:37.982Z,61.83
2023-04-11T15:49:40.142Z,61.05
2023-04-11T15:52:42.993Z,58.95
2023-04-11T15:55:45.151Z,59.51
2023-04-11T15:58:48.813Z,60.53
2023-04-11T16:01:51.772Z,60.07
2023-04-11T16:04:55.496Z,61.84
2023-04-11T16:07:59.388Z,61.08
2023-04-11T16:11:01.420Z,59.77
2023-04-11T16:14:03.523Z,61.38
2023-04-11T16:17:05.576Z,61.70
2023-04-11T16:20:11.979Z,63.17
2023-04-11T16:23:14.343Z,62.00
2023-04-11T16:26:17.011Z,61.96
2023-04-11T16:29:19.214Z,63.14
2023-04-11T16:32:21.442Z,65.15
2023-04-11T16:35:23.435Z,63.88
2023-04-11T16:38:26.666Z,65.09
2023-04-11T16:41:28.536Z,66.01
2023-04-11T16:44:30.554Z,63.43
2023-04-11T16:47:32.759Z,63.88
2023-04-11T16:50:35.388Z,63.79
2023-04-11T16:53:38.494Z,63.52
2023-04-11T16:56:40.930Z,62.99
2023-04-11T16:59:42.998Z,64.35
2023-04-11T17:02:45.186Z,63.40
2023-04-11T17:05:47.778Z,64.42
2023-04-11T17:08:49.943Z,61.98
2023-04-11T17:11:51.994Z,63.81
2023-04-11T17:14:56.315Z,63.65
2023-04-11T17:17:58.762Z,63.88
2023-04-11T17:21:01.508Z,65.56
2023-04-11T17:24:03.857Z,65.71
2023-04-11T17:27:06.083Z,63.51
2023-04-11T17:30:10.107Z,63.60
2023-04-11T17:33:12.280Z,65.14
2023-04-11T17:36:14.583Z,66.92
2023-04-11T17:39:19.726Z,68.33
2023-04-11T17:42:21.901Z,68.68
2023-04-11T17:45:24.227Z,67.29
2023-04-11T17:48:26.240Z,65.88
2023-04-11T17:51:28.955Z,64.57
2023-04-11T17:54:31.328Z,64.56
2023-04-11T17:57:33.458Z,65.28
2023-04-11T18:00:48.486Z,65.06
2023-04-11T18:03:57.821Z,67.28
2023-04-11T18:07:00.000Z,69.53
2023-04-11T18:10:02.020Z,67.09
2023-04-11T18:13:04.013Z,68.11
2023-04-11T18:16:09.671Z,70.55
2023-04-11T18:19:11.902Z,72.12
2023-04-11T18:22:13.986Z,71.55
2023-04-11T18:25:16.859Z,70.18
2023-04-11T18:28:18.891Z,72.97
2023-04-11T18:31:21.107Z,72.99
2023-04-11T18:34:23.484Z,74.41
2023-04-11T18:37:28.733Z,75.02
2023-04-11T18:40:31.456Z,73.90
2023-04-11T18:43:34.201Z,74.63
2023-04-11T18:46:36.621Z,73.71
2023-04-11T18:49:38.751Z,72.36
2023-04-11T18:52:40.995Z,73.28
2023-04-11T18:55:43.688Z,73.81
2023-04-11T18:58:48.591Z,75.53
2023-04-11T19:01:53.160Z,77.09
2023-04-11T19:05:00.598Z,76.05
2023-04-11T19:08:03.611Z,77.44
2023-04-11T19:11:06.291Z,74.40
2023-04-11T19:14:09.970Z,73.92
2023-04-11T19:17:15.957Z,74.98
2023-04-11T19:20:19.453Z,74.72
2023-04-11T19:23:22.429Z,75.69
2023-04-11T19:26:28.245Z,76.14
2023-04-11T19:29:31.181Z,69.62
2023-04-11T19:32:36.751Z,64.14
2023-04-11T19:35:41.236Z,63.13
2023-04-11T19:38:43.661Z,69.41
2023-04-11T19:41:47.141Z,71.31
2023-04-11T19:44:50.282Z,72.05
2023-04-11T19:47:53.534Z,75.04
2023-04-11T19:50:56.717Z,74.56
2023-04-11T19:53:59.919Z,74.91
2023-04-11T19:57:02.858Z,76.42
2023-04-11T20:00:14.129Z,75.88
2023-04-11T20:03:21.399Z,76.17
2023-04-11T20:06:24.588Z,76.89
2023-04-11T20:09:31.522Z,77.21
2023-04-11T20:12:35.213Z,74.80
2023-04-11T20:15:38.677Z,75.56
2023-04-11T20:18:41.478Z,74.43
2023-04-11T20:21:44.328Z,74.91
2023-04-11T20:24:47.912Z,75.43
2023-04-11T20:27:50.958Z,75.46
2023-04-11T20:30:53.826Z,74.67
2023-04-11T20:33:56.014Z,72.83
2023-04-11T20:37:01.298Z,73.52
2023-04-11T20:40:07.062Z,74.66
2023-04-11T20:43:09.948Z,75.73
2023-04-11T20:46:13.879Z,76.33
2023-04-11T20:49:19.789Z,75.51
2023-04-11T20:52:22.473Z,74.37
2023-04-11T20:55:25.462Z,73.64
2023-04-11T20:58:27.581Z,75.56
2023-04-11T21:01:33.726Z,74.77
2023-04-11T21:04:35.896Z,74.91
2023-04-11T21:07:38.098Z,75.35
2023-04-11T21:10:40.160Z,76.35
2023-04-11T21:13:42.141Z,76.40
2023-04-11T21:16:44.225Z,76.14
2023-04-11T21:19:46.234Z,76.69
2023-04-11T21:22:53.198Z,76.43
2023-04-11T21:25:55.292Z,76.57
2023-04-11T21:28:57.259Z,77.01
2023-04-11T21:31:59.269Z,76.92
2023-04-11T21:35:01.890Z,77.80
2023-04-11T21:38:04.125Z,77.69
2023-04-11T21:41:06.560Z,77.24
2023-04-11T21:44:08.676Z,78.09
2023-04-11T21:47:10.895Z,77.83
2023-04-11T21:50:12.994Z,77.20
2023-04-11T21:53:15.121Z,77.11
2023-04-11T21:56:17.055Z,76.80
2023-04-11T21:59:19.180Z,77.65
2023-04-11T22:02:21.324Z,77.18
2023-04-11T22:05:23.847Z,77.73
2023-04-11T22:08:29.506Z,78.17
2023-04-11T22:11:32.247Z,78.76
2023-04-11T22:14:34.378Z,78.64
2023-04-11T22:17:37.384Z,77.13
2023-04-11T22:20:43.811Z,77.47
2023-04-11T22:23:49.069Z,77.94
2023-04-11T22:26:54.077Z,78.39
2023-04-11T22:29:59.987Z,79.02
2023-04-11T22:33:02.105Z,79.22
2023-04-11T22:36:04.585Z,78.99
2023-04-11T22:39:07.460Z,75.41
2023-04-11T22:42:11.045Z,71.97
2023-04-11T22:45:13.040Z,70.94
2023-04-11T22:48:15.015Z,71.61
2023-04-11T22:51:16.997Z,70.42
2023-04-11T22:54:19.596Z,69.24
2023-04-11T22:57:21.849Z,71.08
2023-04-11T23:00:24.256Z,71.32
2023-04-11T23:03:28.200Z,72.37
2023-04-11T23:06:30.280Z,73.60
2023-04-11T23:09:32.439Z,73.57
2023-04-11T23:12:34.481Z,72.89
2023-04-11T23:15:37.891Z,73.30
2023-04-11T23:18:39.853Z,74.18
2023-04-11T23:21:42.311Z,75.01
2023-04-11T23:24:44.758Z,75.91
2023-04-11T23:27:46.839Z,76.62
2023-04-11T23:30:48.947Z,77.64
2023-04-11T23:33:50.961Z,77.69
2023-04-11T23:36:53.080Z,77.98
2023-04-11T23:39:55.320Z,78.13
2023-04-11T23:43:00.124Z,78.88
2023-04-11T23:46:02.429Z,79.43
2023-04-11T23:49:05.127Z,78.52
2023-04-11T23:52:07.794Z,79.73
2023-04-11T23:55:10.759Z,79.60
2023-04-11T23:58:12.818Z,79.86
